Time;durP1;ratioP1;P1;durP2;ratioP2;P2;SDS_P1;SDS_P2;PMS_P1;PMS_P2;Temp;Humidity;BMP_temperature;BMP_pressure;BME280_temperature;BME280_humidity;BME280_pressure;Samples;Min_cycle;Max_cycle;Signal;HPM_P1;HPM_P2
2023/08/17 00:00:10;;;;;;;;;;;;;;;22.97;67.35;97103.45;622891;227;62401;-72
2023/08/17 00:02:38;;;;;;;;;;;;;;;22.96;67.34;97096.50;623179;227;62037;-73
2023/08/17 00:05:09;;;;;;;;;;;;;;;22.96;67.36;97101.87;622545;226;64814;-72
2023/08/17 00:07:36;;;;;;;;;;;;;;;22.97;67.37;97098.09;623891;227;64473;-73
2023/08/17 00:10:04;;;;;;;;;;;;;;;22.96;67.35;97097.30;622884;227;61984;-73
2023/08/17 00:12:32;;;;;;;;;;;;;;;22.96;67.34;97093.83;622546;227;64622;-73
2023/08/17 00:14:59;;;;;;;;;;;;;;;22.96;67.35;97096.50;622583;228;64433;-72
2023/08/17 00:17:27;;;;;;;;;;;;;;;22.97;67.37;97092.73;622556;228;64965;-73
2023/08/17 00:19:54;;;;;;;;;;;;;;;22.96;67.35;97096.50;624582;227;65500;-73
2023/08/17 00:22:22;;;;;;;;;;;;;;;22.96;67.35;97093.83;622494;227;62265;-73
2023/08/17 00:24:49;;;;;;;;;;;;;;;22.97;67.35;97100.77;622845;227;61992;-73
2023/08/17 00:27:17;;;;;;;;;;;;;;;22.96;67.35;97096.50;624040;227;65802;-73
2023/08/17 00:29:44;;;;;;;;;;;;;;;22.96;67.37;97101.87;622576;227;64351;-73
2023/08/17 00:32:12;;;;;;;;;;;;;;;22.96;67.36;97096.50;622578;228;63058;-72
2023/08/17 00:34:39;;;;;;;;;;;;;;;22.95;67.35;97095.69;622510;228;62437;-73
2023/08/17 00:37:07;;;;;;;;;;;;;;;22.96;67.35;97096.50;623444;227;64432;-73
2023/08/17 00:39:34;;;;;;;;;;;;;;;22.97;67.34;97098.09;622696;226;64279;-73
2023/08/17 00:42:02;;;;;;;;;;;;;;;22.96;67.33;97091.15;622532;228;64535;-73
2023/08/17 00:44:29;;;;;;;;;;;;;;;22.95;67.35;97098.36;623081;227;62228;-73
2023/08/17 00:46:57;;;;;;;;;;;;;;;22.96;67.34;97101.87;623053;227;64215;-72
2023/08/17 00:49:25;;;;;;;;;;;;;;;22.95;67.36;97095.69;622524;228;64547;-73
2023/08/17 00:51:52;;;;;;;;;;;;;;;22.96;67.39;97101.87;622499;227;62165;-73
2023/08/17 00:54:21;;;;;;;;;;;;;;;22.96;67.34;97101.87;622510;228;64289;-73
2023/08/17 00:56:49;;;;;;;;;;;;;;;22.97;67.35;97098.09;622491;227;64444;-73
2023/08/17 00:59:16;;;;;;;;;;;;;;;22.95;67.37;97090.32;622550;225;64334;-73
2023/08/17 01:01:44;;;;;;;;;;;;;;;22.96;67.37;97099.19;623275;227;64178;-72
2023/08/17 01:04:12;;;;;;;;;;;;;;;22.96;67.37;97096.50;622704;227;64705;-73
2023/08/17 01:06:39;;;;;;;;;;;;;;;22.95;67.33;97095.69;622470;228;64947;-73
2023/08/17 01:09:07;;;;;;;;;;;;;;;22.96;67.34;97096.50;622899;226;64758;-73
2023/08/17 01:11:42;;;;;;;;;;;;;;;22.96;67.36;97104.55;623321;227;64704;-73
2023/08/17 01:14:17;;;;;;;;;;;;;;;22.95;67.36;97101.05;623235;225;65372;-73
2023/08/17 01:16:52;;;;;;;;;;;;;;;22.95;67.34;97101.05;622481;226;63042;-72
2023/08/17 01:19:22;;;;;;;;;;;;;;;22.95;67.35;97103.72;622489;228;64559;-72
2023/08/17 01:21:50;;;;;;;;;;;;;;;22.95;67.37;97101.05;622279;227;65403;-71
2023/08/17 01:24:19;;;;;;;;;;;;;;;22.95;67.34;97100.25;622434;228;62591;-72
2023/08/17 01:26:46;;;;;;;;;;;;;;;22.94;67.36;97091.39;623300;225;64505;-72
2023/08/17 01:29:14;;;;;;;;;;;;;;;22.95;67.34;97094.89;623034;227;62976;-72
2023/08/17 01:31:43;;;;;;;;;;;;;;;22.95;67.33;97093.00;622502;226;62704;-72
2023/08/17 01:34:13;;;;;;;;;;;;;;;22.96;67.34;97096.50;623364;227;65750;-71
2023/08/17 01:36:45;;;;;;;;;;;;;;;22.94;67.38;97094.06;622474;227;62973;-72
2023/08/17 01:39:13;;;;;;;;;;;;;;;22.95;67.35;97097.57;622445;226;63177;-72
2023/08/17 01:41:42;;;;;;;;;;;;;;;22.94;67.35;97099.42;622467;227;64438;-72
2023/08/17 01:44:09;;;;;;;;;;;;;;;22.95;67.32;97095.69;622510;228;66468;-71
2023/08/17 01:46:38;;;;;;;;;;;;;;;22.94;67.30;97083.34;622461;226;65019;-71
2023/08/17 01:49:05;;;;;;;;;;;;;;;22.95;67.28;97078.81;622499;228;64818;-72
2023/08/17 01:51:33;;;;;;;;;;;;;;;22.94;67.27;97083.34;622487;228;65381;-71
2023/08/17 01:54:00;;;;;;;;;;;;;;;22.94;67.27;97079.88;622778;225;66179;-72
2023/08/17 01:56:28;;;;;;;;;;;;;;;22.95;67.33;97084.17;623271;227;62405;-72
2023/08/17 01:58:55;;;;;;;;;;;;;;;22.94;67.32;97079.88;622836;227;64979;-72
2023/08/17 02:01:23;;;;;;;;;;;;;;;22.95;67.31;97078.81;623417;225;64971;-72
2023/08/17 02:03:51;;;;;;;;;;;;;;;22.94;67.33;97071.83;623276;225;64551;-72
2023/08/17 02:06:19;;;;;;;;;;;;;;;22.94;67.27;97075.30;623742;226;66017;-72
2023/08/17 02:08:46;;;;;;;;;;;;;;;22.94;67.28;97075.30;623784;227;64967;-72
2023/08/17 02:11:15;;;;;;;;;;;;;;;22.94;67.27;97077.19;622827;227;62071;-71
2023/08/17 02:13:43;;;;;;;;;;;;;;;22.94;67.28;97075.30;623165;227;65383;-71
2023/08/17 02:16:11;;;;;;;;;;;;;;;22.95;67.28;97070.77;623148;227;62896;-71
2023/08/17 02:18:39;;;;;;;;;;;;;;;22.94;67.28;97071.83;623154;227;64534;-72
2023/08/17 02:21:06;;;;;;;;;;;;;;;22.94;67.26;97071.83;623389;227;65457;-72
2023/08/17 02:23:34;;;;;;;;;;;;;;;22.94;67.25;97069.16;622659;227;64924;-72
2023/08/17 02:26:03;;;;;;;;;;;;;;;22.93;67.25;97071.04;622720;227;62555;-71
2023/08/17 02:28:32;;;;;;;;;;;;;;;22.94;67.26;97071.83;623187;227;65938;-72
2023/08/17 02:30:59;;;;;;;;;;;;;;;22.93;67.26;97067.56;623334;227;64981;-71
2023/08/17 02:33:29;;;;;;;;;;;;;;;22.93;67.26;97068.36;622553;227;44669;-72
2023/08/17 02:35:56;;;;;;;;;;;;;;;22.94;67.26;97069.16;622509;228;63021;-73
2023/08/17 02:38:24;;;;;;;;;;;;;;;22.94;67.25;97071.83;622502;226;64966;-72
2023/08/17 02:40:52;;;;;;;;;;;;;;;22.94;67.26;97071.83;623737;225;64509;-72
2023/08/17 02:43:19;;;;;;;;;;;;;;;22.93;67.24;97067.56;624046;225;63041;-72
2023/08/17 02:45:47;;;;;;;;;;;;;;;22.93;67.21;97068.36;622980;227;64868;-72
2023/08/17 02:48:14;;;;;;;;;;;;;;;22.94;67.20;97071.83;622473;227;64532;-72
2023/08/17 02:50:42;;;;;;;;;;;;;;;22.93;67.24;97070.24;622459;226;65476;-72
2023/08/17 02:53:09;;;;;;;;;;;;;;;22.93;67.21;97071.04;622443;227;65594;-72
2023/08/17 02:55:37;;;;;;;;;;;;;;;22.93;67.19;97064.89;622476;228;64581;-72
2023/08/17 02:58:05;;;;;;;;;;;;;;;22.93;67.24;97064.89;622501;228;62756;-72
2023/08/17 03:00:32;;;;;;;;;;;;;;;22.93;67.21;97064.89;623645;227;62883;-72
2023/08/17 03:03:00;;;;;;;;;;;;;;;22.93;67.21;97062.20;623322;227;64603;-72
2023/08/17 03:05:27;;;;;;;;;;;;;;;22.93;67.21;97064.89;623390;227;65574;-72
2023/08/17 03:07:55;;;;;;;;;;;;;;;22.93;67.19;97064.89;623313;227;64967;-72
2023/08/17 03:10:24;;;;;;;;;;;;;;;22.93;67.18;97064.89;622668;227;64533;-72
2023/08/17 03:12:52;;;;;;;;;;;;;;;22.93;67.19;97071.04;622498;228;64939;-72
2023/08/17 03:15:20;;;;;;;;;;;;;;;22.93;67.22;97070.24;622455;228;63790;-72
2023/08/17 03:17:48;;;;;;;;;;;;;;;22.93;67.21;97070.24;623229;227;64554;-72
2023/08/17 03:20:15;;;;;;;;;;;;;;;22.93;67.21;97071.04;622749;226;65482;-72
2023/08/17 03:22:43;;;;;;;;;;;;;;;22.93;67.20;97072.92;622674;226;62849;-72
2023/08/17 03:25:11;;;;;;;;;;;;;;;22.92;67.23;97072.13;623300;227;65550;-72
2023/08/17 03:27:41;;;;;;;;;;;;;;;22.92;67.19;97074.02;622412;228;63193;-72
2023/08/17 03:30:08;;;;;;;;;;;;;;;22.93;67.20;97078.28;622498;226;64739;-71
2023/08/17 03:32:36;;;;;;;;;;;;;;;22.92;67.18;97080.17;623520;227;64519;-71
2023/08/17 03:35:04;;;;;;;;;;;;;;;22.93;67.18;97080.97;622520;228;65433;-72
2023/08/17 03:37:31;;;;;;;;;;;;;;;22.92;67.14;97074.81;622483;226;62905;-72
2023/08/17 03:40:00;;;;;;;;;;;;;;;22.93;67.18;97083.64;623867;227;62337;-71
2023/08/17 03:42:29;;;;;;;;;;;;;;;22.92;67.18;97084.73;622431;228;65853;-72
2023/08/17 03:44:57;;;;;;;;;;;;;;;22.92;67.18;97084.73;622902;227;64937;-72
2023/08/17 03:47:24;;;;;;;;;;;;;;;22.92;67.19;97085.53;622463;225;64239;-72
2023/08/17 03:49:52;;;;;;;;;;;;;;;22.92;67.16;97095.45;622463;226;63196;-72
2023/08/17 03:52:20;;;;;;;;;;;;;;;22.93;67.18;97091.69;623069;226;62916;-72
2023/08/17 03:54:48;;;;;;;;;;;;;;;22.92;67.14;97096.25;622430;228;65120;-72
2023/08/17 03:57:17;;;;;;;;;;;;;;;22.92;67.15;97100.81;623011;227;62567;-72
2023/08/17 03:59:45;;;;;;;;;;;;;;;22.92;67.12;97095.45;623272;225;62423;-72
2023/08/17 04:02:12;;;;;;;;;;;;;;;22.92;67.11;97093.57;622868;227;65039;-72
2023/08/17 04:04:40;;;;;;;;;;;;;;;22.91;67.09;97093.84;623521;227;64922;-72
2023/08/17 04:07:08;;;;;;;;;;;;;;;22.92;67.11;97095.45;623305;227;64981;-75
2023/08/17 04:09:35;;;;;;;;;;;;;;;22.92;67.10;97106.17;623322;227;64584;-74
2023/08/17 04:12:04;;;;;;;;;;;;;;;22.91;67.08;97108.03;623057;227;64856;-75
2023/08/17 04:14:34;;;;;;;;;;;;;;;22.92;67.12;97106.17;622502;226;65409;-74
2023/08/17 04:17:01;;;;;;;;;;;;;;;22.92;67.10;97112.33;622499;226;62411;-75
2023/08/17 04:19:29;;;;;;;;;;;;;;;22.91;67.07;97109.91;622495;228;62731;-75
2023/08/17 04:21:57;;;;;;;;;;;;;;;22.91;67.06;97109.91;609674;227;64299;-75
2023/08/17 04:24:24;;;;;;;;;;;;;;;22.90;67.06;97111.01;623668;225;63330;-74
2023/08/17 04:26:52;;;;;;;;;;;;;;;22.90;67.05;97111.01;622499;228;62650;-74
2023/08/17 04:29:19;;;;;;;;;;;;;;;22.90;67.04;97108.33;623457;227;64966;-74
2023/08/17 04:31:47;;;;;;;;;;;;;;;22.90;67.03;97113.69;623354;225;64810;-74
2023/08/17 04:34:14;;;;;;;;;;;;;;;22.90;67.03;97108.33;622856;226;65637;-75
2023/08/17 04:36:42;;;;;;;;;;;;;;;22.90;67.03;97108.33;622457;228;65014;-75
2023/08/17 04:39:10;;;;;;;;;;;;;;;22.89;67.04;97104.03;622496;228;62412;-74
2023/08/17 04:41:37;;;;;;;;;;;;;;;22.90;67.00;97105.65;623853;227;65388;-74
2023/08/17 04:44:06;;;;;;;;;;;;;;;22.90;66.99;97108.33;622502;226;62491;-74
2023/08/17 04:46:34;;;;;;;;;;;;;;;22.89;67.00;97110.22;622427;226;64735;-74
2023/08/17 04:49:01;;;;;;;;;;;;;;;22.90;66.99;97108.33;623288;227;63803;-74
2023/08/17 04:51:29;;;;;;;;;;;;;;;22.90;66.97;97109.12;623338;227;65187;-75
2023/08/17 04:53:57;;;;;;;;;;;;;;;22.90;67.00;97108.33;618747;228;64111;-75
2023/08/17 04:56:25;;;;;;;;;;;;;;;22.89;67.00;97107.53;622824;227;65892;-75
2023/08/17 04:58:53;;;;;;;;;;;;;;;22.90;66.99;97108.33;622762;226;64004;-75
2023/08/17 05:01:20;;;;;;;;;;;;;;;22.90;67.00;97105.65;623213;227;62566;-74
2023/08/17 05:03:48;;;;;;;;;;;;;;;22.89;66.99;97109.39;622427;228;65130;-75
2023/08/17 05:06:16;;;;;;;;;;;;;;;22.90;67.01;97108.33;622506;228;62470;-74
2023/08/17 05:08:43;;;;;;;;;;;;;;;22.90;67.09;97111.01;622684;227;63470;-75
2023/08/17 05:11:11;;;;;;;;;;;;;;;22.89;67.01;97106.71;623339;227;65520;-75
2023/08/17 05:13:39;;;;;;;;;;;;;;;22.89;66.97;97106.71;622512;228;64754;-74
2023/08/17 05:16:06;;;;;;;;;;;;;;;22.89;67.00;97112.89;622488;228;65284;-74
2023/08/17 05:18:35;;;;;;;;;;;;;;;22.89;66.99;97112.06;622599;226;65834;-75
2023/08/17 05:21:02;;;;;;;;;;;;;;;22.88;66.98;97111.27;623429;227;63154;-74
2023/08/17 05:23:31;;;;;;;;;;;;;;;22.89;66.99;97107.53;623132;227;65086;-74
2023/08/17 05:25:59;;;;;;;;;;;;;;;22.89;66.98;97101.34;622911;226;65790;-74
2023/08/17 05:28:27;;;;;;;;;;;;;;;22.89;66.96;97112.06;623590;226;65001;-75
2023/08/17 05:30:56;;;;;;;;;;;;;;;22.90;67.03;97111.01;623451;227;65235;-75
2023/08/17 05:33:24;;;;;;;;;;;;;;;22.89;66.94;97109.39;622516;227;65221;-75
2023/08/17 05:35:55;;;;;;;;;;;;;;;22.88;66.97;97105.91;622480;228;62530;-75
2023/08/17 05:38:23;;;;;;;;;;;;;;;22.89;66.94;97106.71;617544;227;64556;-75
2023/08/17 05:40:57;;;;;;;;;;;;;;;22.89;66.95;97102.17;622203;228;62680;-74
2023/08/17 05:43:24;;;;;;;;;;;;;;;22.89;66.94;97101.34;623794;227;62977;-74
2023/08/17 05:45:52;;;;;;;;;;;;;;;22.89;66.97;97107.53;623597;225;62738;-74
2023/08/17 05:48:20;;;;;;;;;;;;;;;22.89;66.97;97106.71;622933;227;65647;-72
2023/08/17 05:50:48;;;;;;;;;;;;;;;22.89;66.97;97109.39;623365;227;64837;-72
2023/08/17 05:53:15;;;;;;;;;;;;;;;22.88;66.96;97105.91;623980;227;64728;-72
2023/08/17 05:55:43;;;;;;;;;;;;;;;22.89;66.99;97109.39;622981;227;65256;-72
2023/08/17 05:58:11;;;;;;;;;;;;;;;22.88;66.99;97108.59;622505;228;64941;-72
2023/08/17 06:00:38;;;;;;;;;;;;;;;22.89;66.98;97112.06;622368;226;62515;-71
2023/08/17 06:03:06;;;;;;;;;;;;;;;22.88;66.99;97105.91;623537;225;65475;-73
2023/08/17 06:05:34;;;;;;;;;;;;;;;22.90;67.38;97105.65;622114;226;62828;-68
2023/08/17 06:08:01;;;;;;;;;;;;;;;22.88;67.05;97102.44;617507;229;64709;-72
2023/08/17 06:10:29;;;;;;;;;;;;;;;22.88;67.07;97105.91;618541;228;65247;-74
2023/08/17 06:12:57;;;;;;;;;;;;;;;22.88;67.17;97099.77;619936;229;64858;-71
2023/08/17 06:15:25;;;;;;;;;;;;;;;22.88;67.18;97108.59;617810;229;62873;-73
2023/08/17 06:17:52;;;;;;;;;;;;;;;22.89;67.10;97106.71;620198;227;65478;-72
2023/08/17 06:20:20;;;;;;;;;;;;;;;22.88;67.09;97105.91;619559;229;64910;-73
2023/08/17 06:22:49;;;;;;;;;;;;;;;22.88;67.10;97102.44;618705;228;62711;-73
2023/08/17 06:25:17;;;;;;;;;;;;;;;22.89;67.04;97104.03;619404;228;62999;-72
2023/08/17 06:27:44;;;;;;;;;;;;;;;22.88;67.05;97099.77;620871;227;64864;-72
2023/08/17 06:30:12;;;;;;;;;;;;;;;22.88;67.02;97099.77;620178;227;65848;-72
2023/08/17 06:32:40;;;;;;;;;;;;;;;22.89;67.00;97098.67;614934;228;65404;-71
2023/08/17 06:35:08;;;;;;;;;;;;;;;22.88;67.05;97095.20;619873;228;65538;-71
2023/08/17 06:37:35;;;;;;;;;;;;;;;22.88;67.00;97094.41;619434;229;64632;-72
2023/08/17 06:40:05;;;;;;;;;;;;;;;22.88;67.00;97094.41;618436;229;63141;-71
2023/08/17 06:42:32;;;;;;;;;;;;;;;22.88;67.02;97094.41;613589;228;65009;-72
2023/08/17 06:45:00;;;;;;;;;;;;;;;22.88;67.02;97097.08;617743;228;64673;-71
2023/08/17 06:47:27;;;;;;;;;;;;;;;22.88;67.05;97107.80;619933;228;62994;-71
2023/08/17 06:49:57;;;;;;;;;;;;;;;22.87;67.04;97098.97;622432;227;62884;-71
2023/08/17 06:52:25;;;;;;;;;;;;;;;22.88;67.05;97097.08;621650;228;64399;-72
2023/08/17 06:54:52;;;;;;;;;;;;;;;22.88;67.02;97099.77;622418;227;65091;-73
2023/08/17 06:57:21;;;;;;;;;;;;;;;22.88;67.02;97102.44;623254;226;62982;-72
2023/08/17 06:59:49;;;;;;;;;;;;;;;22.88;67.02;97099.77;623192;227;65454;-75
2023/08/17 07:02:16;;;;;;;;;;;;;;;22.89;67.02;97104.03;623936;226;66610;-74
2023/08/17 07:04:44;;;;;;;;;;;;;;;22.88;67.02;97102.44;621990;227;65335;-75
2023/08/17 07:07:11;;;;;;;;;;;;;;;22.88;67.01;97102.44;622770;227;64601;-76
2023/08/17 07:09:39;;;;;;;;;;;;;;;22.89;67.02;97101.34;623962;226;65331;-72
2023/08/17 07:12:06;;;;;;;;;;;;;;;22.88;67.05;97107.80;620976;227;65390;-75
2023/08/17 07:14:34;;;;;;;;;;;;;;;22.89;67.00;97106.71;622421;227;64578;-73
2023/08/17 07:17:01;;;;;;;;;;;;;;;22.88;67.06;97099.77;622395;226;63051;-64
2023/08/17 07:19:29;;;;;;;;;;;;;;;22.89;67.00;97101.34;622446;228;65356;-70
2023/08/17 07:21:57;;;;;;;;;;;;;;;22.87;68.80;97104.33;623250;227;64442;-71
2023/08/17 07:24:24;;;;;;;;;;;;;;;22.87;67.36;97103.53;622538;227;65411;-66
2023/08/17 07:26:52;;;;;;;;;;;;;;;22.87;67.35;97098.97;623278;225;66081;-72
2023/08/17 07:29:19;;;;;;;;;;;;;;;22.89;67.31;97098.67;622909;227;64557;-72
2023/08/17 07:31:47;;;;;;;;;;;;;;;22.90;67.29;97100.29;623404;227;65794;-70
2023/08/17 07:34:14;;;;;;;;;;;;;;;22.90;67.34;97102.97;622396;228;62863;-72
2023/08/17 07:36:42;;;;;;;;;;;;;;;22.91;67.65;97102.67;622411;228;62678;-73
2023/08/17 07:39:09;;;;;;;;;;;;;;;22.90;67.75;97097.61;622366;228;63088;-74
2023/08/17 07:41:37;;;;;;;;;;;;;;;22.91;68.46;97108.03;622398;228;62771;-73
2023/08/17 07:44:04;;;;;;;;;;;;;;;22.93;69.44;97107.77;622376;228;62062;-73
2023/08/17 07:46:32;;;;;;;;;;;;;;;22.92;69.86;97101.61;623584;225;63245;-72
2023/08/17 07:49:00;;;;;;;;;;;;;;;22.93;69.69;97102.41;622393;228;63462;-75
2023/08/17 07:51:29;;;;;;;;;;;;;;;22.92;69.53;97101.61;623357;227;62430;-73
2023/08/17 07:53:56;;;;;;;;;;;;;;;22.93;69.12;97102.41;623490;226;63005;-73
2023/08/17 07:56:24;;;;;;;;;;;;;;;22.92;68.58;97101.61;622778;227;65003;-73
2023/08/17 07:58:51;;;;;;;;;;;;;;;22.93;67.63;97102.41;623183;227;62431;-72
2023/08/17 08:01:19;;;;;;;;;;;;;;;22.94;67.38;97103.98;623432;227;62988;-72
2023/08/17 08:03:47;;;;;;;;;;;;;;;22.99;67.28;97098.63;623235;227;64759;-64
2023/08/17 08:06:14;;;;;;;;;;;;;;;23.00;66.96;97098.35;623356;227;64567;-64
2023/08/17 08:08:42;;;;;;;;;;;;;;;23.01;66.88;97085.75;622311;227;64755;-66
2023/08/17 08:11:10;;;;;;;;;;;;;;;23.03;67.24;97086.27;622870;227;63671;-64
2023/08/17 08:13:37;;;;;;;;;;;;;;;23.04;67.64;97087.86;622804;227;62408;-64
2023/08/17 08:16:05;;;;;;;;;;;;;;;23.04;67.54;97085.97;623168;227;65634;-72
2023/08/17 08:18:32;;;;;;;;;;;;;;;23.04;67.41;97079.81;622443;228;63649;-66
2023/08/17 08:21:00;;;;;;;;;;;;;;;23.06;67.34;97079.55;622984;227;62519;-63
2023/08/17 08:23:29;;;;;;;;;;;;;;;23.07;67.07;97081.13;622820;227;64831;-64
2023/08/17 08:25:58;;;;;;;;;;;;;;;23.08;67.25;97083.55;622984;227;64750;-64
2023/08/17 08:28:25;;;;;;;;;;;;;;;23.08;66.90;97083.55;623591;227;65701;-74
2023/08/17 08:30:53;;;;;;;;;;;;;;;23.09;67.13;97077.09;623385;225;65340;-74
2023/08/17 08:33:20;;;;;;;;;;;;;;;23.10;67.63;97075.20;622455;228;65196;-73
2023/08/17 08:35:48;;;;;;;;;;;;;;;23.11;67.20;97071.43;622299;227;62540;-75
2023/08/17 08:38:15;;;;;;;;;;;;;;;23.11;67.16;97079.47;622423;227;64216;-76
2023/08/17 08:40:43;;;;;;;;;;;;;;;23.12;66.99;97078.41;622958;227;63756;-64
2023/08/17 08:43:10;;;;;;;;;;;;;;;23.12;67.05;97073.05;621636;228;64740;-74
2023/08/17 08:45:40;;;;;;;;;;;;;;;23.12;66.89;97067.69;622448;227;65512;-74
2023/08/17 08:48:09;;;;;;;;;;;;;;;23.14;66.87;97063.64;623668;227;65921;-72
2023/08/17 08:50:37;;;;;;;;;;;;;;;23.13;67.11;97063.91;623014;226;64575;-72
2023/08/17 08:53:06;;;;;;;;;;;;;;;23.21;66.77;97053.36;623847;225;64027;-66
2023/08/17 08:55:35;;;;;;;;;;;;;;;23.21;66.78;97047.20;622450;226;64829;-73
2023/08/17 08:58:03;;;;;;;;;;;;;;;23.18;67.23;97058.50;622557;227;64478;-74
2023/08/17 09:00:31;;;;;;;;;;;;;;;23.16;67.80;97049.94;623151;227;63014;-72
2023/08/17 09:02:59;;;;;;;;;;;;;;;23.14;67.91;97047.56;623057;227;65564;-75
2023/08/17 09:05:27;;;;;;;;;;;;;;;23.12;68.17;97041.67;620837;227;63304;-73
2023/08/17 09:07:55;;;;;;;;;;;;;;;23.12;68.69;97048.92;620970;228;64193;-72
2023/08/17 09:10:23;;;;;;;;;;;;;;;23.11;68.96;97044.63;622295;227;65216;-73
2023/08/17 09:12:50;;;;;;;;;;;;;;;23.10;69.12;97043.83;622420;228;64572;-72
2023/08/17 09:15:18;;;;;;;;;;;;;;;23.09;69.16;97036.88;622411;228;63047;-73
2023/08/17 09:17:48;;;;;;;;;;;;;;;23.09;69.42;97038.77;622270;226;64972;-73
2023/08/17 09:20:17;;;;;;;;;;;;;;;23.09;69.42;97041.45;622362;228;64552;-72
2023/08/17 09:22:44;;;;;;;;;;;;;;;23.09;69.51;97031.52;621567;227;64989;-75
2023/08/17 09:25:13;;;;;;;;;;;;;;;23.09;69.50;97041.45;622786;227;65216;-74
2023/08/17 09:27:41;;;;;;;;;;;;;;;23.08;69.47;97046.02;623458;227;64407;-74
2023/08/17 09:30:10;;;;;;;;;;;;;;;23.09;69.49;97039.56;621677;227;65568;-74
2023/08/17 09:32:38;;;;;;;;;;;;;;;23.08;69.56;97035.30;616636;228;62902;-74
2023/08/17 09:35:06;;;;;;;;;;;;;;;23.08;69.55;97047.88;618655;226;64530;-75
2023/08/17 09:37:34;;;;;;;;;;;;;;;23.09;69.49;97039.56;618890;227;65628;-76
2023/08/17 09:40:01;;;;;;;;;;;;;;;23.08;69.45;97037.98;620909;226;66083;-74
2023/08/17 09:42:29;;;;;;;;;;;;;;;23.08;69.37;97027.25;619140;228;65785;-81
2023/08/17 09:45:01;;;;;;;;;;;;;;;23.09;69.30;97026.16;620010;227;65404;-77
2023/08/17 09:47:27;;;;;;;;;;;;;;;23.09;69.26;97028.05;620822;227;62848;-75
2023/08/17 09:49:55;;;;;;;;;;;;;;;23.08;69.18;97029.11;616007;228;62434;-77
2023/08/17 09:52:26;;;;;;;;;;;;;;;23.08;69.20;97029.94;615669;230;62747;-73
2023/08/17 09:54:57;;;;;;;;;;;;;;;23.09;69.25;97030.73;615875;230;65257;-73
2023/08/17 09:57:25;;;;;;;;;;;;;;;23.09;69.22;97026.16;615380;230;62339;-73
2023/08/17 09:59:54;;;;;;;;;;;;;;;23.08;69.34;97027.25;615392;230;64272;-73
2023/08/17 10:02:28;;;;;;;;;;;;;;;23.09;69.33;97020.01;616552;228;65204;-73
2023/08/17 10:04:54;;;;;;;;;;;;;;;23.09;69.20;97017.33;615230;230;64592;-73
2023/08/17 10:07:23;;;;;;;;;;;;;;;23.09;69.30;97028.05;616209;230;65237;-76
2023/08/17 10:09:52;;;;;;;;;;;;;;;23.08;69.07;97018.39;616227;230;63561;-76
2023/08/17 10:12:21;;;;;;;;;;;;;;;23.08;69.17;97019.22;615787;226;63498;-76
2023/08/17 10:14:50;;;;;;;;;;;;;;;23.09;69.37;97017.33;616333;230;63074;-76
2023/08/17 10:17:19;;;;;;;;;;;;;;;23.08;69.30;97007.67;615330;227;63248;-74
2023/08/17 10:19:57;;;;;;;;;;;;;;;23.09;69.39;97011.97;615293;227;63510;-75
2023/08/17 10:22:29;;;;;;;;;;;;;;;23.09;69.26;97009.28;615288;230;65489;-73
2023/08/17 10:24:59;;;;;;;;;;;;;;;23.08;69.16;97008.49;616223;228;63034;-73
2023/08/17 10:27:27;;;;;;;;;;;;;;;23.09;69.19;97015.44;615773;228;64748;-73
2023/08/17 10:29:55;;;;;;;;;;;;;;;23.09;69.07;97004.72;615447;228;65629;-73
2023/08/17 10:32:24;;;;;;;;;;;;;;;23.09;69.14;96999.36;616202;230;65197;-73
2023/08/17 10:34:52;;;;;;;;;;;;;;;23.09;69.12;96999.36;615392;230;64906;-73
2023/08/17 10:37:21;;;;;;;;;;;;;;;23.09;69.07;96993.20;615757;230;62906;-73
2023/08/17 10:39:49;;;;;;;;;;;;;;;23.09;69.12;97007.40;616106;230;65241;-73
2023/08/17 10:42:18;;;;;;;;;;;;;;;23.08;69.06;96992.41;615258;228;64333;-73
2023/08/17 10:44:49;;;;;;;;;;;;;;;23.09;69.12;96980.59;617312;226;66551;-73
2023/08/17 10:47:20;;;;;;;;;;;;;;;23.10;69.10;96984.06;616341;230;63827;-74
2023/08/17 10:49:52;;;;;;;;;;;;;;;23.09;69.12;96977.91;615324;228;64733;-68
2023/08/17 10:52:26;;;;;;;;;;;;;;;23.10;69.16;96984.06;615906;230;65377;-71
2023/08/17 10:54:55;;;;;;;;;;;;;;;23.10;69.03;96984.86;615680;230;65451;-72
2023/08/17 10:57:30;;;;;;;;;;;;;;;23.10;68.92;96979.50;615297;230;62369;-73
2023/08/17 11:00:08;;;;;;;;;;;;;;;23.10;69.01;96976.81;615725;230;63283;-72
2023/08/17 11:02:35;;;;;;;;;;;;;;;23.10;69.08;96982.18;615581;230;63850;-77
2023/08/17 11:05:03;;;;;;;;;;;;;;;23.10;69.03;96974.14;615445;230;64610;-76
2023/08/17 11:07:33;;;;;;;;;;;;;;;23.11;68.97;96985.66;615311;230;63238;-73
2023/08/17 11:10:01;;;;;;;;;;;;;;;23.10;68.98;96976.81;616098;227;65147;-74
2023/08/17 11:12:30;;;;;;;;;;;;;;;23.10;69.00;96968.77;616107;230;63717;-72
2023/08/17 11:14:59;;;;;;;;;;;;;;;23.11;68.98;96977.61;620134;226;65454;-74
2023/08/17 11:17:27;;;;;;;;;;;;;;;23.11;69.00;96972.25;623189;226;63101;-73
2023/08/17 11:19:54;;;;;;;;;;;;;;;23.10;68.96;96971.45;623073;227;64539;-72
2023/08/17 11:22:22;;;;;;;;;;;;;;;23.11;68.93;96973.08;622950;227;65478;-72
2023/08/17 11:24:49;;;;;;;;;;;;;;;23.11;68.93;96970.39;622375;228;65907;-72
2023/08/17 11:27:17;;;;;;;;;;;;;;;23.12;68.91;96976.55;622374;228;64713;-72
2023/08/17 11:29:45;;;;;;;;;;;;;;;23.12;68.92;96973.86;622988;227;63194;-71
2023/08/17 11:32:12;;;;;;;;;;;;;;;23.11;68.93;96970.39;622754;227;65482;-71
2023/08/17 11:34:41;;;;;;;;;;;;;;;23.12;68.93;96966.61;622340;226;64530;-71
2023/08/17 11:37:08;;;;;;;;;;;;;;;23.12;68.93;96965.83;622421;227;65479;-72
2023/08/17 11:39:36;;;;;;;;;;;;;;;23.12;68.92;96974.66;622403;228;65445;-72
2023/08/17 11:42:03;;;;;;;;;;;;;;;23.12;68.85;96977.34;622384;228;62474;-73
2023/08/17 11:44:31;;;;;;;;;;;;;;;23.13;68.85;96972.77;622435;227;63199;-75
2023/08/17 11:46:59;;;;;;;;;;;;;;;23.12;68.91;96974.66;622350;227;64981;-74
2023/08/17 11:49:26;;;;;;;;;;;;;;;23.13;68.93;96973.56;622398;226;65343;-75
2023/08/17 11:51:53;;;;;;;;;;;;;;;23.13;68.91;96965.52;622334;228;65170;-74
2023/08/17 11:54:21;;;;;;;;;;;;;;;23.13;68.87;96976.24;622318;228;66137;-73
2023/08/17 11:56:49;;;;;;;;;;;;;;;23.14;68.93;96972.50;622335;228;63451;-73
2023/08/17 11:59:19;;;;;;;;;;;;;;;23.14;68.90;96958.30;622386;228;63179;-72
2023/08/17 12:01:49;;;;;;;;;;;;;;;23.14;68.94;96955.62;622869;227;63167;-73
2023/08/17 12:04:17;;;;;;;;;;;;;;;23.14;68.90;96953.73;622305;228;62384;-70
2023/08/17 12:06:47;;;;;;;;;;;;;;;23.15;68.83;96958.00;622356;228;65195;-74
2023/08/17 12:09:15;;;;;;;;;;;;;;;23.14;68.75;96956.41;623172;227;62968;-71
2023/08/17 12:11:44;;;;;;;;;;;;;;;23.15;68.72;96949.95;622590;227;62664;-71
2023/08/17 12:14:12;;;;;;;;;;;;;;;23.15;68.78;96944.59;622425;228;63713;-72
2023/08/17 12:16:47;;;;;;;;;;;;;;;23.16;68.79;96942.70;622855;227;65100;-73
2023/08/17 12:19:15;;;;;;;;;;;;;;;23.15;68.80;96944.59;622858;227;62687;-74
2023/08/17 12:21:43;;;;;;;;;;;;;;;23.16;68.85;96935.48;622167;226;65225;-75
2023/08/17 12:24:14;;;;;;;;;;;;;;;23.15;68.86;96933.88;616784;226;64819;-73
2023/08/17 12:26:43;;;;;;;;;;;;;;;23.15;68.75;96931.19;622367;227;62438;-74
2023/08/17 12:29:10;;;;;;;;;;;;;;;23.15;68.86;96923.15;622824;227;65043;-74
2023/08/17 12:31:38;;;;;;;;;;;;;;;23.17;68.81;96931.71;622373;227;62566;-74
2023/08/17 12:34:05;;;;;;;;;;;;;;;23.16;68.82;96930.13;622417;227;62438;-73
2023/08/17 12:36:35;;;;;;;;;;;;;;;23.17;68.81;96920.98;621797;227;63782;-73
2023/08/17 12:39:03;;;;;;;;;;;;;;;23.20;67.34;96927.66;619776;228;64994;-75
2023/08/17 12:41:31;;;;;;;;;;;;;;;23.19;66.35;96921.50;619900;228;62549;-73
2023/08/17 12:43:59;;;;;;;;;;;;;;;23.21;66.60;96916.63;619074;228;65448;-72
2023/08/17 12:46:26;;;;;;;;;;;;;;;23.21;66.15;96911.27;619418;229;63292;-73
2023/08/17 12:48:54;;;;;;;;;;;;;;;23.21;66.10;96916.63;619397;229;62463;-73
2023/08/17 12:51:21;;;;;;;;;;;;;;;23.22;65.85;96912.09;619390;229;63023;-74